createdAt,value
2022-11-15T00:01:09.641Z,0
2022-11-15T00:02:26.746Z,0
2022-11-15T00:03:43.850Z,0
2022-11-15T00:05:00.955Z,0
2022-11-15T00:06:17.081Z,0
2022-11-15T00:07:33.202Z,0
2022-11-15T00:08:50.307Z,0
2022-11-15T00:10:07.412Z,0
2022-11-15T00:11:24.516Z,0
2022-11-15T00:12:41.621Z,0
2022-11-15T00:13:58.726Z,0
2022-11-15T00:15:15.830Z,0
2022-11-15T00:16:32.936Z,0
2022-11-15T00:17:50.041Z,0
2022-11-15T00:19:07.145Z,0
2022-11-15T00:20:24.250Z,0
2022-11-15T00:21:41.353Z,0
2022-11-15T00:22:58.457Z,0
2022-11-15T00:24:14.578Z,0
2022-11-15T00:25:31.682Z,0
2022-11-15T00:26:48.787Z,0
2022-11-15T00:28:05.892Z,0
2022-11-15T00:29:22.997Z,0
2022-11-15T00:30:40.101Z,0
2022-11-15T00:31:57.207Z,0
2022-11-15T00:33:13.333Z,0
2022-11-15T00:34:29.454Z,0
2022-11-15T00:35:45.580Z,0
2022-11-15T00:37:01.701Z,0
2022-11-15T00:38:17.827Z,0
2022-11-15T00:39:33.947Z,0
2022-11-15T00:40:51.052Z,0
2022-11-15T00:42:08.157Z,0
2022-11-15T00:43:25.261Z,0
2022-11-15T00:44:42.366Z,0
2022-11-15T00:45:59.472Z,0
2022-11-15T00:47:16.577Z,0
2022-11-15T00:48:33.681Z,0
2022-11-15T00:49:50.786Z,0
2022-11-15T00:51:07.891Z,0
2022-11-15T00:52:24.995Z,0
2022-11-15T00:53:42.100Z,0
2022-11-15T00:54:59.204Z,0
2022-11-15T00:56:15.325Z,0
2022-11-15T00:57:32.430Z,0
2022-11-15T00:58:49.535Z,0
2022-11-15T01:00:06.639Z,0
2022-11-15T01:01:23.744Z,0
2022-11-15T01:02:40.849Z,0
2022-11-15T01:03:57.953Z,0
2022-11-15T01:05:14.079Z,0
2022-11-15T01:06:30.200Z,0
2022-11-15T01:07:46.326Z,0
2022-11-15T01:10:19.552Z,0
2022-11-15T01:11:36.656Z,0
2022-11-15T01:12:53.761Z,0
2022-11-15T01:14:10.866Z,0
2022-11-15T01:15:27.970Z,0
2022-11-15T01:16:45.075Z,0
2022-11-15T01:18:02.180Z,0
2022-11-15T01:19:19.284Z,0
2022-11-15T01:20:36.389Z,0
2022-11-15T01:21:53.494Z,0
2022-11-15T01:23:10.599Z,0
2022-11-15T01:24:27.703Z,0
2022-11-15T01:25:43.824Z,0
2022-11-15T01:27:00.929Z,0
2022-11-15T01:28:18.033Z,0
2022-11-15T01:29:35.138Z,0
2022-11-15T01:30:52.243Z,0
2022-11-15T01:32:09.347Z,0
2022-11-15T01:33:26.452Z,0
2022-11-15T01:34:43.556Z,0
2022-11-15T01:35:59.682Z,0
2022-11-15T01:37:15.803Z,0
2022-11-15T01:38:31.929Z,0
2022-11-15T01:39:48.049Z,0
2022-11-15T01:41:05.154Z,0
2022-11-15T01:42:22.259Z,0
2022-11-15T01:43:39.363Z,0
2022-11-15T01:44:56.468Z,0
2022-11-15T01:46:13.572Z,0
2022-11-15T01:47:30.677Z,0
2022-11-15T01:48:47.779Z,0
2022-11-15T01:50:04.884Z,0
2022-11-15T01:51:21.989Z,0
2022-11-15T01:52:39.093Z,0
2022-11-15T01:53:56.198Z,0
2022-11-15T01:55:13.302Z,0
2022-11-15T01:56:29.423Z,0
2022-11-15T01:57:46.528Z,0
2022-11-15T01:59:03.632Z,0
2022-11-15T02:00:20.737Z,0
2022-11-15T02:01:37.841Z,0
2022-11-15T02:02:54.946Z,0
2022-11-15T02:04:12.051Z,0
2022-11-15T02:05:28.176Z,0
2022-11-15T02:06:44.297Z,0
2022-11-15T02:08:01.403Z,0
2022-11-15T02:09:17.529Z,0
2022-11-15T02:10:33.649Z,0
2022-11-15T02:11:50.754Z,0
2022-11-15T02:13:07.858Z,0
2022-11-15T02:14:24.963Z,0
2022-11-15T02:15:42.067Z,0
2022-11-15T02:16:59.171Z,0
2022-11-15T02:18:16.276Z,0
2022-11-15T02:19:33.381Z,0
2022-11-15T02:20:50.486Z,0
2022-11-15T02:22:07.590Z,0
2022-11-15T02:23:24.695Z,0
2022-11-15T02:24:41.799Z,0
2022-11-15T02:25:58.904Z,0
2022-11-15T02:27:15.024Z,0
2022-11-15T02:28:32.129Z,0
2022-11-15T02:29:49.234Z,0
2022-11-15T02:31:06.339Z,0
2022-11-15T02:32:23.444Z,0
2022-11-15T02:33:40.549Z,0
2022-11-15T02:34:57.653Z,0
2022-11-15T02:36:14.758Z,0
2022-11-15T02:37:31.862Z,0
2022-11-15T02:38:48.966Z,0
2022-11-15T02:40:06.071Z,0
2022-11-15T02:41:23.176Z,0
2022-11-15T02:42:39.302Z,0
2022-11-15T02:43:55.422Z,0
2022-11-15T02:45:12.527Z,0
2022-11-15T02:46:28.653Z,0
2022-11-15T02:47:44.773Z,0
2022-11-15T02:49:01.878Z,0
2022-11-15T02:50:18.982Z,0
2022-11-15T02:51:36.087Z,0
2022-11-15T02:52:53.191Z,0
2022-11-15T02:54:10.296Z,0
2022-11-15T02:55:27.400Z,0
2022-11-15T02:56:44.505Z,0
2022-11-15T02:58:01.609Z,0
2022-11-15T02:59:18.714Z,0
2022-11-15T03:00:34.835Z,0
2022-11-15T03:01:51.939Z,0
2022-11-15T03:03:09.044Z,0
2022-11-15T03:04:26.148Z,0
2022-11-15T03:05:43.253Z,0
2022-11-15T03:07:00.358Z,0
2022-11-15T03:08:17.462Z,0
2022-11-15T03:09:34.567Z,0
2022-11-15T03:10:51.671Z,0
2022-11-15T03:12:08.776Z,0
2022-11-15T03:13:24.902Z,0
2022-11-15T03:14:41.023Z,0
2022-11-15T03:15:58.127Z,0
2022-11-15T03:17:14.253Z,0
2022-11-15T03:18:30.374Z,0
2022-11-15T03:19:47.478Z,0
2022-11-15T03:21:04.582Z,0
2022-11-15T03:22:21.687Z,0
2022-11-15T03:23:38.792Z,0
2022-11-15T03:24:55.896Z,0
2022-11-15T03:26:13.001Z,0
2022-11-15T03:27:30.105Z,0
2022-11-15T03:28:47.210Z,0
2022-11-15T03:30:04.314Z,0
2022-11-15T03:31:21.419Z,0
2022-11-15T03:32:38.524Z,0
2022-11-15T03:33:55.628Z,0
2022-11-15T03:35:11.749Z,0
2022-11-15T03:36:28.853Z,0
2022-11-15T03:37:45.958Z,0
2022-11-15T03:39:03.062Z,0
2022-11-15T03:40:20.167Z,0
2022-11-15T03:41:37.271Z,0
2022-11-15T03:44:11.480Z,0
2022-11-15T03:45:28.585Z,0
2022-11-15T03:46:45.689Z,0
2022-11-15T03:48:02.794Z,0
2022-11-15T03:49:19.898Z,0
2022-11-15T03:50:37.003Z,0
2022-11-15T03:51:53.124Z,0
2022-11-15T03:53:10.228Z,0
2022-11-15T03:54:27.333Z,0
2022-11-15T03:55:44.437Z,0
2022-11-15T03:57:01.542Z,0
2022-11-15T03:58:18.646Z,0
2022-11-15T03:59:35.751Z,0
2022-11-15T04:00:52.855Z,0
2022-11-15T04:02:09.960Z,0
2022-11-15T04:03:27.064Z,0
2022-11-15T04:04:43.190Z,0
2022-11-15T04:05:59.310Z,0
2022-11-15T04:07:15.436Z,0
2022-11-15T04:08:31.557Z,0
2022-11-15T04:09:48.661Z,0
2022-11-15T04:11:05.766Z,0
2022-11-15T04:12:22.870Z,0
2022-11-15T04:13:39.975Z,0
2022-11-15T04:14:57.079Z,0
2022-11-15T04:16:14.184Z,0
2022-11-15T04:17:31.288Z,0
2022-11-15T04:18:48.392Z,0
2022-11-15T04:20:05.497Z,0
2022-11-15T04:21:22.602Z,0
2022-11-15T04:22:39.706Z,0
2022-11-15T04:23:56.811Z,0
2022-11-15T04:25:12.931Z,0
2022-11-15T04:26:30.036Z,0
2022-11-15T04:27:47.140Z,0
2022-11-15T04:29:04.245Z,0
2022-11-15T04:30:21.349Z,0
2022-11-15T04:31:38.454Z,0
2022-11-15T04:32:55.558Z,0
2022-11-15T04:34:11.684Z,0
2022-11-15T04:35:27.805Z,0
2022-11-15T04:36:44.909Z,0
2022-11-15T04:38:01.035Z,0
2022-11-15T04:39:17.156Z,0
2022-11-15T04:40:34.260Z,0
2022-11-15T04:41:51.365Z,0
2022-11-15T04:43:08.469Z,0
2022-11-15T04:44:25.574Z,0
2022-11-15T04:45:42.678Z,0
2022-11-15T04:46:59.782Z,0
2022-11-15T04:48:16.887Z,0
2022-11-15T04:49:33.992Z,0
2022-11-15T04:50:51.096Z,0
2022-11-15T04:52:08.201Z,0
2022-11-15T04:53:25.305Z,0
2022-11-15T04:54:42.409Z,0
2022-11-15T04:55:58.530Z,0
2022-11-15T04:57:15.634Z,0
2022-11-15T04:58:32.739Z,0
2022-11-15T04:59:49.843Z,0
2022-11-15T05:01:06.948Z,0
2022-11-15T05:02:24.052Z,0
2022-11-15T05:03:41.157Z,0
2022-11-15T05:04:57.282Z,0
2022-11-15T05:06:13.403Z,0
2022-11-15T05:07:29.529Z,0
2022-11-15T05:08:45.649Z,0
2022-11-15T05:10:02.754Z,0
2022-11-15T05:11:19.858Z,0
2022-11-15T05:12:36.963Z,0
2022-11-15T05:13:54.068Z,0
2022-11-15T05:15:11.173Z,0
2022-11-15T05:16:28.277Z,0
2022-11-15T05:17:45.382Z,0
2022-11-15T05:19:02.486Z,0
2022-11-15T05:20:19.592Z,0
2022-11-15T05:21:36.696Z,0
2022-11-15T05:22:53.800Z,0
2022-11-15T05:24:10.905Z,0
2022-11-15T05:25:27.025Z,0
2022-11-15T05:26:44.130Z,0
2022-11-15T05:28:01.234Z,0
2022-11-15T05:29:18.339Z,0
2022-11-15T05:31:52.548Z,0
2022-11-15T05:33:09.652Z,0
2022-11-15T05:34:26.757Z,0
2022-11-15T05:35:42.883Z,0
2022-11-15T05:36:59.003Z,0
2022-11-15T05:38:15.129Z,0
2022-11-15T05:39:31.250Z,0
2022-11-15T05:40:48.354Z,0
2022-11-15T05:42:05.460Z,0
2022-11-15T05:43:22.564Z,0
2022-11-15T05:44:39.669Z,0
2022-11-15T05:45:56.773Z,0
2022-11-15T05:47:13.878Z,0
2022-11-15T05:48:30.982Z,0
2022-11-15T05:49:48.086Z,0
2022-11-15T05:51:05.191Z,0
2022-11-15T05:52:22.296Z,0
2022-11-15T05:53:39.400Z,0
2022-11-15T05:54:56.505Z,0
2022-11-15T05:56:12.626Z,0
2022-11-15T05:57:29.731Z,0
2022-11-15T05:58:46.835Z,0
2022-11-15T06:00:03.940Z,0
2022-11-15T06:01:21.044Z,0
2022-11-15T06:02:38.149Z,0
2022-11-15T06:03:55.254Z,0
2022-11-15T06:05:11.380Z,0
2022-11-15T06:06:27.500Z,0
2022-11-15T06:07:43.626Z,0
2022-11-15T06:10:16.851Z,0
2022-11-15T06:11:33.956Z,0
2022-11-15T06:12:51.061Z,0
2022-11-15T06:14:08.165Z,0
2022-11-15T06:15:25.270Z,0
2022-11-15T06:16:42.374Z,0
2022-11-15T06:17:59.479Z,0
2022-11-15T06:19:16.584Z,0
2022-11-15T06:20:33.689Z,0
2022-11-15T06:21:50.793Z,0
2022-11-15T06:23:07.898Z,0
2022-11-15T06:24:25.002Z,0
2022-11-15T06:25:41.123Z,0
2022-11-15T06:26:58.228Z,0
2022-11-15T06:28:15.332Z,0
2022-11-15T06:29:32.437Z,0
2022-11-15T06:30:49.542Z,0
2022-11-15T06:32:06.647Z,0
2022-11-15T06:33:23.751Z,0
2022-11-15T06:34:40.856Z,0
2022-11-15T06:35:56.982Z,0
2022-11-15T06:37:13.103Z,5
2022-11-15T06:38:29.229Z,5
2022-11-15T06:39:45.349Z,5
2022-11-15T06:41:02.454Z,5
2022-11-15T06:42:19.559Z,5
2022-11-15T06:43:36.663Z,5
2022-11-15T06:44:53.768Z,5
2022-11-15T06:46:10.873Z,5
2022-11-15T06:47:27.978Z,11
2022-11-15T06:48:45.082Z,11
2022-11-15T06:50:02.187Z,11
2022-11-15T06:51:19.291Z,16
2022-11-15T06:52:36.396Z,16
2022-11-15T06:53:53.501Z,16
2022-11-15T06:56:27.711Z,16
2022-11-15T06:57:43.831Z,16
2022-11-15T06:59:00.936Z,16
2022-11-15T07:00:18.040Z,22
2022-11-15T07:01:35.145Z,28
2022-11-15T07:02:52.249Z,28
2022-11-15T07:04:09.354Z,39
2022-11-15T07:05:26.458Z,45
2022-11-15T07:06:42.584Z,50
2022-11-15T07:07:58.705Z,56
2022-11-15T07:09:14.831Z,61
2022-11-15T07:10:30.952Z,73
2022-11-15T07:11:48.056Z,73
2022-11-15T07:13:05.161Z,73
2022-11-15T07:14:22.266Z,73
2022-11-15T07:15:39.370Z,78
2022-11-15T07:16:56.475Z,84
2022-11-15T07:18:12.595Z,84
2022-11-15T07:19:29.700Z,95
2022-11-15T07:20:46.804Z,101
2022-11-15T07:22:03.909Z,118
2022-11-15T07:23:21.013Z,112
2022-11-15T07:24:38.116Z,112
2022-11-15T07:25:55.221Z,112
2022-11-15T07:27:12.325Z,106
2022-11-15T07:28:29.430Z,112
2022-11-15T07:29:46.535Z,112
2022-11-15T07:31:03.639Z,118
2022-11-15T07:32:20.744Z,129
2022-11-15T07:33:37.849Z,129
2022-11-15T07:34:53.969Z,140
2022-11-15T07:36:10.095Z,151
2022-11-15T07:37:26.216Z,157
2022-11-15T07:38:43.321Z,151
2022-11-15T07:39:59.447Z,151
2022-11-15T07:41:15.567Z,151
2022-11-15T07:42:32.672Z,151
2022-11-15T07:43:49.776Z,140
2022-11-15T07:45:06.881Z,123
2022-11-15T07:46:23.985Z,106
2022-11-15T07:47:41.090Z,118
2022-11-15T07:48:58.194Z,135
2022-11-15T07:50:15.298Z,146
2022-11-15T07:51:32.403Z,163
2022-11-15T07:52:49.508Z,168
2022-11-15T07:54:06.612Z,168
2022-11-15T07:55:23.717Z,168
2022-11-15T07:56:40.821Z,163
2022-11-15T07:57:56.942Z,151
2022-11-15T07:59:14.046Z,129
2022-11-15T08:00:31.151Z,118
2022-11-15T08:01:48.255Z,101
2022-11-15T08:03:05.360Z,90
2022-11-15T08:04:22.464Z,84
2022-11-15T08:05:39.568Z,73
2022-11-15T08:06:55.694Z,84
2022-11-15T08:08:11.815Z,90
2022-11-15T08:09:28.919Z,101
2022-11-15T08:10:46.023Z,118
2022-11-15T08:12:03.128Z,129
2022-11-15T08:13:20.232Z,146
2022-11-15T08:14:37.336Z,146
2022-11-15T08:15:54.442Z,140
2022-11-15T08:17:11.547Z,135
2022-11-15T08:18:28.651Z,135
2022-11-15T08:19:45.756Z,135
2022-11-15T08:21:02.860Z,140
2022-11-15T08:22:19.964Z,146
2022-11-15T08:23:37.069Z,151
2022-11-15T08:24:53.189Z,157
2022-11-15T08:26:10.294Z,146
2022-11-15T08:27:27.398Z,146
2022-11-15T08:28:44.503Z,157
2022-11-15T08:30:01.607Z,163
2022-11-15T08:31:18.711Z,163
2022-11-15T08:32:35.816Z,163
2022-11-15T08:33:51.942Z,185
2022-11-15T08:35:08.062Z,174
2022-11-15T08:36:25.166Z,174
2022-11-15T08:37:41.292Z,174
2022-11-15T08:38:57.413Z,163
2022-11-15T08:40:14.517Z,191
2022-11-15T08:41:31.621Z,191
2022-11-15T08:42:48.726Z,191
2022-11-15T08:44:05.830Z,208
2022-11-15T08:45:22.935Z,202
2022-11-15T08:46:40.039Z,219
2022-11-15T08:47:57.143Z,230
2022-11-15T08:49:14.248Z,225
2022-11-15T08:50:31.352Z,230
2022-11-15T08:51:48.456Z,202
2022-11-15T08:53:05.561Z,196
2022-11-15T08:54:22.665Z,208
2022-11-15T08:55:38.786Z,208
2022-11-15T08:56:55.890Z,225
2022-11-15T08:58:12.995Z,225
2022-11-15T08:59:30.099Z,219
2022-11-15T09:00:47.203Z,219
2022-11-15T09:02:04.308Z,208
2022-11-15T09:03:21.412Z,225
2022-11-15T09:04:37.538Z,236
2022-11-15T09:05:53.658Z,225
2022-11-15T09:07:09.784Z,236
2022-11-15T09:08:25.904Z,241
2022-11-15T09:09:43.009Z,247
2022-11-15T09:12:17.219Z,241
2022-11-15T09:13:34.324Z,202
2022-11-15T09:14:51.428Z,185
2022-11-15T09:16:08.532Z,168
2022-11-15T09:17:25.637Z,168
2022-11-15T09:18:42.741Z,157
2022-11-15T09:19:59.846Z,157
2022-11-15T09:21:16.950Z,157
2022-11-15T09:22:34.055Z,157
2022-11-15T09:23:51.159Z,180
2022-11-15T09:25:07.280Z,163
2022-11-15T09:26:24.384Z,146
2022-11-15T09:27:41.488Z,140
2022-11-15T09:28:58.593Z,174
2022-11-15T09:30:15.697Z,196
2022-11-15T09:31:32.802Z,196
2022-11-15T09:32:49.907Z,213
2022-11-15T09:34:07.011Z,225
2022-11-15T09:35:23.137Z,230
2022-11-15T09:36:39.257Z,236
2022-11-15T09:37:55.383Z,258
2022-11-15T09:39:11.504Z,292
2022-11-15T09:40:28.608Z,303
2022-11-15T09:41:45.713Z,326
2022-11-15T09:43:02.817Z,354
2022-11-15T09:44:19.922Z,298
2022-11-15T09:45:37.026Z,286
2022-11-15T09:46:54.131Z,337
2022-11-15T09:48:11.235Z,298
2022-11-15T09:49:28.340Z,303
2022-11-15T09:50:45.444Z,337
2022-11-15T09:52:02.549Z,315
2022-11-15T09:53:19.653Z,315
2022-11-15T09:54:36.758Z,343
2022-11-15T09:55:52.878Z,382
2022-11-15T09:57:09.983Z,466
2022-11-15T09:58:27.088Z,455
2022-11-15T09:59:44.193Z,444
2022-11-15T10:01:01.298Z,517
2022-11-15T10:02:18.402Z,433
2022-11-15T10:03:35.507Z,545
2022-11-15T10:04:51.633Z,472
2022-11-15T10:06:07.754Z,534
2022-11-15T10:07:23.879Z,562
2022-11-15T10:08:40.000Z,601
2022-11-15T10:09:57.104Z,466
2022-11-15T10:11:14.208Z,405
2022-11-15T10:12:31.313Z,405
2022-11-15T10:13:48.417Z,382
2022-11-15T10:15:05.521Z,472
2022-11-15T10:16:22.625Z,393
2022-11-15T10:17:39.729Z,371
2022-11-15T10:18:56.833Z,382
2022-11-15T10:20:13.937Z,461
2022-11-15T10:21:31.041Z,427
2022-11-15T10:22:48.145Z,466
2022-11-15T10:24:05.250Z,393
2022-11-15T10:25:21.370Z,421
2022-11-15T10:26:38.474Z,331
2022-11-15T10:27:55.578Z,343
2022-11-15T10:29:12.682Z,399
2022-11-15T10:30:29.786Z,399
2022-11-15T10:31:46.890Z,331
2022-11-15T10:33:03.994Z,343
2022-11-15T10:34:20.120Z,315
2022-11-15T10:35:36.240Z,303
2022-11-15T10:36:52.366Z,315
2022-11-15T10:38:08.486Z,343
2022-11-15T10:39:25.590Z,393
2022-11-15T10:40:42.695Z,354
2022-11-15T10:41:59.799Z,348
2022-11-15T10:43:16.903Z,360
2022-11-15T10:44:34.007Z,360
2022-11-15T10:45:51.111Z,360
2022-11-15T10:47:08.215Z,360
2022-11-15T10:48:25.319Z,360
2022-11-15T10:49:42.424Z,354
2022-11-15T10:50:59.528Z,371
2022-11-15T10:52:16.633Z,416
2022-11-15T10:53:33.737Z,438
2022-11-15T10:54:49.857Z,421
2022-11-15T10:56:06.961Z,410
2022-11-15T10:57:24.065Z,393
2022-11-15T10:58:41.169Z,382
2022-11-15T10:59:58.273Z,365
2022-11-15T11:01:15.377Z,365
2022-11-15T11:02:32.482Z,360
2022-11-15T11:03:48.607Z,343
2022-11-15T11:05:04.727Z,343
2022-11-15T11:06:20.853Z,343
2022-11-15T11:07:36.973Z,343
2022-11-15T11:08:54.077Z,348
2022-11-15T11:10:11.181Z,348
2022-11-15T11:11:28.285Z,348
2022-11-15T11:12:45.389Z,348
2022-11-15T11:14:02.493Z,343
2022-11-15T11:15:19.597Z,337
2022-11-15T11:16:36.701Z,331
2022-11-15T11:17:53.806Z,326
2022-11-15T11:19:10.910Z,331
2022-11-15T11:20:28.014Z,337
2022-11-15T11:21:45.118Z,286
2022-11-15T11:23:02.222Z,320
2022-11-15T11:24:18.342Z,337
2022-11-15T11:25:35.446Z,320
2022-11-15T11:26:52.550Z,331
2022-11-15T11:28:09.655Z,382
2022-11-15T11:29:26.759Z,382
2022-11-15T11:30:43.863Z,371
2022-11-15T11:32:00.967Z,376
2022-11-15T11:33:17.093Z,371
2022-11-15T11:34:33.213Z,365
2022-11-15T11:35:49.349Z,371
2022-11-15T11:37:05.469Z,365
2022-11-15T11:38:22.573Z,393
2022-11-15T11:39:39.677Z,405
2022-11-15T11:40:56.781Z,410
2022-11-15T11:42:13.885Z,360
2022-11-15T11:43:30.989Z,343
2022-11-15T11:44:48.094Z,343
2022-11-15T11:46:05.198Z,337
2022-11-15T11:47:22.302Z,360
2022-11-15T11:48:39.406Z,326
2022-11-15T11:49:56.510Z,371
2022-11-15T11:51:13.615Z,320
2022-11-15T11:52:30.719Z,286
2022-11-15T11:53:46.839Z,292
2022-11-15T11:55:03.943Z,281
2022-11-15T11:56:21.048Z,343
2022-11-15T11:57:38.152Z,365
2022-11-15T11:58:55.256Z,360
2022-11-15T12:00:12.360Z,326
2022-11-15T12:01:29.464Z,315
2022-11-15T12:02:45.589Z,354
2022-11-15T12:04:01.710Z,281
2022-11-15T12:05:18.814Z,275
2022-11-15T12:06:35.918Z,270
2022-11-15T12:07:53.023Z,258
2022-11-15T12:09:10.128Z,253
2022-11-15T12:10:27.232Z,264
2022-11-15T12:11:44.336Z,281
2022-11-15T12:13:01.440Z,298
2022-11-15T12:14:18.544Z,309
2022-11-15T12:15:35.649Z,309
2022-11-15T12:16:52.753Z,315
2022-11-15T12:18:09.857Z,315
2022-11-15T12:19:26.961Z,320
2022-11-15T12:20:43.082Z,315
2022-11-15T12:22:00.186Z,309
2022-11-15T12:23:17.290Z,303
2022-11-15T12:24:34.394Z,298
2022-11-15T12:25:51.498Z,292
2022-11-15T12:27:08.602Z,286
2022-11-15T12:28:25.707Z,286
2022-11-15T12:29:41.832Z,286
2022-11-15T12:30:57.952Z,281
2022-11-15T12:32:14.078Z,275
2022-11-15T12:33:30.198Z,270
2022-11-15T12:34:47.302Z,264
2022-11-15T12:36:04.406Z,264
2022-11-15T12:37:21.510Z,264
2022-11-15T12:38:38.614Z,270
2022-11-15T12:39:55.718Z,270
2022-11-15T12:41:12.823Z,270
2022-11-15T12:42:29.927Z,275
2022-11-15T12:43:47.031Z,281
2022-11-15T12:45:04.135Z,281
2022-11-15T12:46:21.239Z,281
2022-11-15T12:47:38.344Z,281
2022-11-15T12:48:55.448Z,292
2022-11-15T12:50:11.568Z,292
2022-11-15T12:51:28.672Z,286
2022-11-15T12:52:45.776Z,292
2022-11-15T12:54:02.880Z,281
2022-11-15T12:55:19.984Z,270
2022-11-15T12:56:37.088Z,258
2022-11-15T12:57:54.193Z,253
2022-11-15T12:59:10.318Z,247
2022-11-15T13:00:26.438Z,241
2022-11-15T13:01:42.564Z,241
2022-11-15T13:02:58.684Z,247
2022-11-15T13:04:15.788Z,241
2022-11-15T13:05:32.892Z,241
2022-11-15T13:06:49.996Z,241
2022-11-15T13:08:07.101Z,241
2022-11-15T13:09:24.206Z,247
2022-11-15T13:10:41.310Z,253
2022-11-15T13:11:58.415Z,253
2022-11-15T13:13:15.519Z,247
2022-11-15T13:14:32.624Z,247
2022-11-15T13:15:49.729Z,247
2022-11-15T13:17:06.833Z,247
2022-11-15T13:18:23.937Z,247
2022-11-15T13:19:40.057Z,247
2022-11-15T13:20:57.161Z,241
2022-11-15T13:22:14.265Z,241
2022-11-15T13:23:31.369Z,247
2022-11-15T13:24:48.474Z,247
2022-11-15T13:26:05.578Z,253
2022-11-15T13:27:22.682Z,253
2022-11-15T13:28:38.808Z,253
2022-11-15T13:29:54.928Z,253
2022-11-15T13:31:11.054Z,247
2022-11-15T13:32:27.174Z,247
2022-11-15T13:33:44.278Z,253
2022-11-15T13:35:01.382Z,253
2022-11-15T13:36:18.487Z,253
2022-11-15T13:37:35.591Z,247
2022-11-15T13:38:52.695Z,241
2022-11-15T13:40:09.800Z,236
2022-11-15T13:41:26.904Z,230
2022-11-15T13:42:44.008Z,219
2022-11-15T13:44:01.112Z,213
2022-11-15T13:45:18.216Z,213
2022-11-15T13:46:35.320Z,208
2022-11-15T13:47:52.424Z,208
2022-11-15T13:49:08.544Z,208
2022-11-15T13:50:25.648Z,208
2022-11-15T13:51:42.753Z,208
2022-11-15T13:52:59.857Z,208
2022-11-15T13:54:16.961Z,208
2022-11-15T13:55:34.065Z,202
2022-11-15T13:56:51.169Z,202
2022-11-15T13:58:07.295Z,202
2022-11-15T13:59:23.415Z,196
2022-11-15T14:00:40.520Z,196
2022-11-15T14:01:57.624Z,196
2022-11-15T14:03:13.750Z,191
2022-11-15T14:04:29.870Z,191
2022-11-15T14:05:46.974Z,191
2022-11-15T14:07:04.079Z,185
2022-11-15T14:08:21.183Z,185
2022-11-15T14:09:38.287Z,180
2022-11-15T14:10:55.391Z,180
2022-11-15T14:12:12.495Z,174
2022-11-15T14:13:29.599Z,168
2022-11-15T14:14:46.704Z,168
2022-11-15T14:16:03.808Z,168
2022-11-15T14:17:20.913Z,163
2022-11-15T14:18:38.017Z,163
2022-11-15T14:19:55.121Z,157
2022-11-15T14:21:11.241Z,157
2022-11-15T14:22:28.345Z,151
2022-11-15T14:23:45.450Z,151
2022-11-15T14:25:02.554Z,146
2022-11-15T14:26:19.658Z,146
2022-11-15T14:27:36.763Z,140
2022-11-15T14:28:53.868Z,135
2022-11-15T14:30:09.994Z,129
2022-11-15T14:31:26.115Z,129
2022-11-15T14:32:42.241Z,123
2022-11-15T14:33:58.362Z,118
2022-11-15T14:35:15.467Z,112
2022-11-15T14:36:32.571Z,106
2022-11-15T14:37:49.676Z,106
2022-11-15T14:40:23.885Z,95
2022-11-15T14:41:40.990Z,95
2022-11-15T14:42:58.095Z,95
2022-11-15T14:44:15.200Z,95
2022-11-15T14:45:32.305Z,95
2022-11-15T14:46:49.410Z,90
2022-11-15T14:48:06.514Z,90
2022-11-15T14:49:23.619Z,84
2022-11-15T14:50:39.740Z,78
2022-11-15T14:51:56.845Z,73
2022-11-15T14:53:13.949Z,67
2022-11-15T14:54:31.054Z,61
2022-11-15T14:55:48.159Z,61
2022-11-15T14:57:05.263Z,56
2022-11-15T14:58:22.368Z,56
2022-11-15T14:59:39.472Z,56
2022-11-15T15:00:55.598Z,50
2022-11-15T15:02:11.719Z,50
2022-11-15T15:03:28.824Z,50
2022-11-15T15:04:44.950Z,50
2022-11-15T15:06:01.070Z,45
2022-11-15T15:07:18.175Z,45
2022-11-15T15:08:35.279Z,45
2022-11-15T15:09:52.384Z,39
2022-11-15T15:11:09.490Z,39
2022-11-15T15:12:26.595Z,39
2022-11-15T15:13:43.699Z,39
2022-11-15T15:15:00.804Z,39
2022-11-15T15:16:17.909Z,39
2022-11-15T15:17:35.013Z,33
2022-11-15T15:18:52.118Z,33
2022-11-15T15:20:09.222Z,28
2022-11-15T15:21:26.327Z,28
2022-11-15T15:22:42.448Z,28
2022-11-15T15:23:59.552Z,22
2022-11-15T15:25:16.656Z,22
2022-11-15T15:26:33.761Z,16
2022-11-15T15:27:50.865Z,16
2022-11-15T15:29:07.970Z,11
2022-11-15T15:30:25.074Z,11
2022-11-15T15:31:41.200Z,11
2022-11-15T15:32:57.321Z,11
2022-11-15T15:34:14.425Z,5
2022-11-15T15:35:31.530Z,5
2022-11-15T15:36:47.656Z,5
2022-11-15T15:38:03.776Z,5
2022-11-15T15:39:20.881Z,5
2022-11-15T15:40:37.985Z,5
2022-11-15T15:41:55.090Z,5
2022-11-15T15:43:12.194Z,5
2022-11-15T15:44:29.299Z,0
2022-11-15T15:45:46.403Z,0
2022-11-15T15:47:03.508Z,0
2022-11-15T15:48:20.613Z,0
2022-11-15T15:49:37.717Z,0
2022-11-15T15:50:54.822Z,0
2022-11-15T15:52:11.926Z,0
2022-11-15T15:53:28.047Z,0
2022-11-15T15:54:45.152Z,0
2022-11-15T15:56:02.256Z,0
2022-11-15T15:57:19.361Z,0
2022-11-15T15:58:36.466Z,0
2022-11-15T15:59:53.571Z,0
2022-11-15T16:01:10.675Z,0
2022-11-15T16:02:27.780Z,0
2022-11-15T16:03:43.906Z,0
2022-11-15T16:05:00.026Z,0
2022-11-15T16:06:16.152Z,0
2022-11-15T16:07:32.272Z,0
2022-11-15T16:08:49.377Z,0
2022-11-15T16:10:06.481Z,0
2022-11-15T16:11:23.586Z,0
2022-11-15T16:12:40.690Z,0
2022-11-15T16:13:57.795Z,0
2022-11-15T16:15:14.899Z,0
2022-11-15T16:16:32.004Z,0
2022-11-15T16:17:49.108Z,0
2022-11-15T16:19:06.213Z,0
2022-11-15T16:20:23.318Z,0
2022-11-15T16:21:40.422Z,0
2022-11-15T16:22:57.527Z,0
2022-11-15T16:24:13.647Z,0
2022-11-15T16:25:30.752Z,0
2022-11-15T16:26:47.856Z,0
2022-11-15T16:28:04.961Z,0
2022-11-15T16:29:22.065Z,0
2022-11-15T16:30:39.170Z,0
2022-11-15T16:31:56.274Z,0
2022-11-15T16:33:12.400Z,0
2022-11-15T16:34:28.520Z,0
2022-11-15T16:35:45.626Z,0
2022-11-15T16:37:01.751Z,0
2022-11-15T16:38:17.872Z,0
2022-11-15T16:39:34.976Z,0
2022-11-15T16:40:52.081Z,0
2022-11-15T16:42:09.186Z,0
2022-11-15T16:43:26.291Z,0
2022-11-15T16:44:43.395Z,0
2022-11-15T16:46:00.500Z,0
2022-11-15T16:47:17.604Z,0
2022-11-15T16:48:34.709Z,0
2022-11-15T16:49:51.813Z,0
2022-11-15T16:51:08.918Z,0
2022-11-15T16:52:26.022Z,0
2022-11-15T16:53:43.127Z,0
2022-11-15T16:54:59.248Z,0
2022-11-15T16:56:16.352Z,0
2022-11-15T16:57:33.456Z,0
2022-11-15T16:58:50.561Z,0
2022-11-15T17:00:07.665Z,0
2022-11-15T17:01:24.770Z,0
2022-11-15T17:02:41.874Z,0
2022-11-15T17:03:58.000Z,0
2022-11-15T17:05:14.120Z,0
2022-11-15T17:06:30.246Z,0
2022-11-15T17:07:46.367Z,0
2022-11-15T17:09:03.472Z,0
2022-11-15T17:10:20.576Z,0
2022-11-15T17:11:37.681Z,0
2022-11-15T17:12:54.785Z,0
2022-11-15T17:14:11.889Z,0
2022-11-15T17:15:28.994Z,0
2022-11-15T17:18:03.203Z,0
2022-11-15T17:19:20.307Z,0
2022-11-15T17:20:37.412Z,0
2022-11-15T17:21:54.516Z,0
2022-11-15T17:23:11.620Z,0
2022-11-15T17:24:27.741Z,0
2022-11-15T17:25:44.843Z,0
2022-11-15T17:27:01.948Z,0
2022-11-15T17:28:19.052Z,0
2022-11-15T17:29:36.157Z,0
2022-11-15T17:30:53.262Z,0
2022-11-15T17:32:10.366Z,0
2022-11-15T17:33:27.471Z,0
2022-11-15T17:34:43.596Z,0
2022-11-15T17:35:59.717Z,0
2022-11-15T17:37:15.843Z,0
2022-11-15T17:38:31.963Z,0
2022-11-15T17:39:49.068Z,0
2022-11-15T17:41:06.172Z,0
2022-11-15T17:42:23.277Z,0
2022-11-15T17:43:40.381Z,0
2022-11-15T17:44:57.485Z,0
2022-11-15T17:46:14.590Z,0
2022-11-15T17:47:31.695Z,0
2022-11-15T17:48:48.799Z,0
2022-11-15T17:50:05.903Z,0
2022-11-15T17:51:23.008Z,0
2022-11-15T17:52:40.112Z,0
2022-11-15T17:53:57.217Z,0
2022-11-15T17:56:30.442Z,0
2022-11-15T17:57:47.544Z,0
2022-11-15T17:59:04.649Z,0
2022-11-15T18:00:21.753Z,0
2022-11-15T18:01:38.858Z,0
2022-11-15T18:02:55.962Z,0
2022-11-15T18:04:13.067Z,0
2022-11-15T18:05:29.193Z,0
2022-11-15T18:06:45.313Z,0
2022-11-15T18:08:01.439Z,0
2022-11-15T18:09:17.560Z,0
2022-11-15T18:10:34.664Z,0
2022-11-15T18:11:51.769Z,0
2022-11-15T18:13:08.874Z,0
2022-11-15T18:14:25.978Z,0
2022-11-15T18:15:43.082Z,0
2022-11-15T18:17:00.187Z,0
2022-11-15T18:18:17.291Z,0
2022-11-15T18:19:34.397Z,0
2022-11-15T18:20:51.501Z,0
2022-11-15T18:22:08.606Z,0
2022-11-15T18:23:25.710Z,0
2022-11-15T18:24:42.815Z,0
2022-11-15T18:25:58.935Z,0
2022-11-15T18:27:16.040Z,0
2022-11-15T18:28:33.144Z,0
2022-11-15T18:29:50.249Z,0
2022-11-15T18:31:07.353Z,0
2022-11-15T18:32:24.458Z,0
2022-11-15T18:33:41.562Z,0